sensor_id;sensor_type;location;lat;lon;timestamp;temperature;humidity
61207;DHT22;47070;49.212;8.084;2022-08-19T00:00:39;23.00;99.90
61207;DHT22;47070;49.212;8.084;2022-08-19T00:04:40;22.70;99.90
61207;DHT22;47070;49.212;8.084;2022-08-19T00:08:40;22.60;99.90
61207;DHT22;47070;49.212;8.084;2022-08-19T00:12:42;22.60;99.90
61207;DHT22;47070;49.212;8.084;2022-08-19T00:16:45;22.50;99.90
61207;DHT22;47070;49.212;8.084;2022-08-19T00:20:46;22.50;99.90
61207;DHT22;47070;49.212;8.084;2022-08-19T00:24:46;22.40;99.90
61207;DHT22;47070;49.212;8.084;2022-08-19T00:28:47;22.50;99.90
61207;DHT22;47070;49.212;8.084;2022-08-19T00:32:47;22.40;99.90
61207;DHT22;47070;49.212;8.084;2022-08-19T00:36:48;22.20;99.90
61207;DHT22;47070;49.212;8.084;2022-08-19T00:40:49;22.30;99.90
61207;DHT22;47070;49.212;8.084;2022-08-19T00:44:50;22.20;99.90
61207;DHT22;47070;49.212;8.084;2022-08-19T00:48:51;22.20;99.90
61207;DHT22;47070;49.212;8.084;2022-08-19T00:52:52;22.30;99.90
61207;DHT22;47070;49.212;8.084;2022-08-19T00:56:53;22.30;99.90
61207;DHT22;47070;49.212;8.084;2022-08-19T01:00:54;22.40;99.90
61207;DHT22;47070;49.212;8.084;2022-08-19T01:04:55;22.40;99.90
61207;DHT22;47070;49.212;8.084;2022-08-19T01:08:56;22.50;99.90
61207;DHT22;47070;49.212;8.084;2022-08-19T01:12:58;22.40;99.90
61207;DHT22;47070;49.212;8.084;2022-08-19T01:17:00;22.40;99.90
61207;DHT22;47070;49.212;8.084;2022-08-19T01:21:08;22.40;99.90
61207;DHT22;47070;49.212;8.084;2022-08-19T01:25:09;22.50;99.90
61207;DHT22;47070;49.212;8.084;2022-08-19T01:29:10;22.40;99.90
61207;DHT22;47070;49.212;8.084;2022-08-19T01:33:12;22.40;99.90
61207;DHT22;47070;49.212;8.084;2022-08-19T01:37:14;22.30;99.90
61207;DHT22;47070;49.212;8.084;2022-08-19T01:41:16;22.20;99.90
61207;DHT22;47070;49.212;8.084;2022-08-19T01:45:20;22.20;99.90
61207;DHT22;47070;49.212;8.084;2022-08-19T01:49:22;22.10;99.90
61207;DHT22;47070;49.212;8.084;2022-08-19T01:53:23;22.00;99.90
61207;DHT22;47070;49.212;8.084;2022-08-19T01:57:24;22.10;99.90
61207;DHT22;47070;49.212;8.084;2022-08-19T02:01:24;22.10;99.90
61207;DHT22;47070;49.212;8.084;2022-08-19T02:05:25;22.00;99.90
61207;DHT22;47070;49.212;8.084;2022-08-19T02:09:25;22.00;99.90
61207;DHT22;47070;49.212;8.084;2022-08-19T02:13:26;21.90;99.90
61207;DHT22;47070;49.212;8.084;2022-08-19T02:17:27;22.00;99.90
61207;DHT22;47070;49.212;8.084;2022-08-19T02:21:29;22.20;99.90
61207;DHT22;47070;49.212;8.084;2022-08-19T02:25:29;22.30;99.90
61207;DHT22;47070;49.212;8.084;2022-08-19T02:29:30;22.00;99.90
61207;DHT22;47070;49.212;8.084;2022-08-19T02:33:30;22.00;99.90
61207;DHT22;47070;49.212;8.084;2022-08-19T02:37:31;21.80;99.90
61207;DHT22;47070;49.212;8.084;2022-08-19T02:41:50;21.80;99.90
61207;DHT22;47070;49.212;8.084;2022-08-19T02:45:52;21.70;99.90
61207;DHT22;47070;49.212;8.084;2022-08-19T02:49:52;21.70;99.90
61207;DHT22;47070;49.212;8.084;2022-08-19T02:53:53;21.70;99.90
61207;DHT22;47070;49.212;8.084;2022-08-19T02:57:54;21.60;99.90
61207;DHT22;47070;49.212;8.084;2022-08-19T03:01:54;21.60;99.90
61207;DHT22;47070;49.212;8.084;2022-08-19T03:06:06;21.60;99.90
61207;DHT22;47070;49.212;8.084;2022-08-19T03:10:07;21.80;99.90
61207;DHT22;47070;49.212;8.084;2022-08-19T03:14:08;21.80;99.90
61207;DHT22;47070;49.212;8.084;2022-08-19T03:18:10;21.90;99.90
61207;DHT22;47070;49.212;8.084;2022-08-19T03:22:10;22.10;99.90
61207;DHT22;47070;49.212;8.084;2022-08-19T03:26:11;21.90;99.90
61207;DHT22;47070;49.212;8.084;2022-08-19T03:30:12;21.70;99.90
61207;DHT22;47070;49.212;8.084;2022-08-19T03:34:15;21.60;99.90
61207;DHT22;47070;49.212;8.084;2022-08-19T03:38:17;21.50;99.90
61207;DHT22;47070;49.212;8.084;2022-08-19T03:42:18;21.30;99.90
61207;DHT22;47070;49.212;8.084;2022-08-19T03:46:21;21.50;99.90
61207;DHT22;47070;49.212;8.084;2022-08-19T03:50:22;21.50;99.90
61207;DHT22;47070;49.212;8.084;2022-08-19T03:54:24;21.50;99.90
61207;DHT22;47070;49.212;8.084;2022-08-19T03:58:25;21.60;99.90
61207;DHT22;47070;49.212;8.084;2022-08-19T04:02:26;21.80;99.90
61207;DHT22;47070;49.212;8.084;2022-08-19T04:06:29;21.90;99.90
61207;DHT22;47070;49.212;8.084;2022-08-19T04:10:31;22.00;99.90
61207;DHT22;47070;49.212;8.084;2022-08-19T04:14:32;22.00;99.90
61207;DHT22;47070;49.212;8.084;2022-08-19T04:18:33;22.00;99.90
61207;DHT22;47070;49.212;8.084;2022-08-19T04:22:34;22.00;99.90
61207;DHT22;47070;49.212;8.084;2022-08-19T04:26:36;22.10;99.90
61207;DHT22;47070;49.212;8.084;2022-08-19T04:30:39;22.10;99.90
61207;DHT22;47070;49.212;8.084;2022-08-19T04:34:40;22.10;99.90
61207;DHT22;47070;49.212;8.084;2022-08-19T04:38:42;22.10;99.90
61207;DHT22;47070;49.212;8.084;2022-08-19T04:42:43;22.20;99.90
61207;DHT22;47070;49.212;8.084;2022-08-19T04:46:45;22.00;99.90
61207;DHT22;47070;49.212;8.084;2022-08-19T04:50:47;22.20;99.90
61207;DHT22;47070;49.212;8.084;2022-08-19T04:54:48;22.30;99.90
61207;DHT22;47070;49.212;8.084;2022-08-19T04:58:49;22.30;99.90
61207;DHT22;47070;49.212;8.084;2022-08-19T05:02:52;22.20;99.90
61207;DHT22;47070;49.212;8.084;2022-08-19T05:06:53;22.30;99.90
61207;DHT22;47070;49.212;8.084;2022-08-19T05:10:54;22.30;99.90
61207;DHT22;47070;49.212;8.084;2022-08-19T05:14:55;22.30;99.90
61207;DHT22;47070;49.212;8.084;2022-08-19T05:18:56;22.30;99.90
61207;DHT22;47070;49.212;8.084;2022-08-19T05:23:16;22.20;99.90
61207;DHT22;47070;49.212;8.084;2022-08-19T05:27:17;22.30;99.90
61207;DHT22;47070;49.212;8.084;2022-08-19T05:31:17;22.40;99.90
61207;DHT22;47070;49.212;8.084;2022-08-19T05:35:18;22.50;99.90
61207;DHT22;47070;49.212;8.084;2022-08-19T05:39:20;22.60;99.90
61207;DHT22;47070;49.212;8.084;2022-08-19T05:43:21;22.70;99.90
61207;DHT22;47070;49.212;8.084;2022-08-19T05:47:21;22.70;99.90
61207;DHT22;47070;49.212;8.084;2022-08-19T05:51:23;22.70;99.90
61207;DHT22;47070;49.212;8.084;2022-08-19T05:55:23;22.80;99.90
61207;DHT22;47070;49.212;8.084;2022-08-19T05:59:24;22.70;99.90
61207;DHT22;47070;49.212;8.084;2022-08-19T06:03:24;22.60;99.90
61207;DHT22;47070;49.212;8.084;2022-08-19T06:07:25;22.70;99.90
61207;DHT22;47070;49.212;8.084;2022-08-19T06:11:40;22.70;99.90
61207;DHT22;47070;49.212;8.084;2022-08-19T06:15:41;22.70;99.90
61207;DHT22;47070;49.212;8.084;2022-08-19T06:19:44;22.80;99.90
61207;DHT22;47070;49.212;8.084;2022-08-19T06:23:46;22.90;99.90
61207;DHT22;47070;49.212;8.084;2022-08-19T06:27:47;22.90;99.90
61207;DHT22;47070;49.212;8.084;2022-08-19T06:31:50;22.90;99.90
61207;DHT22;47070;49.212;8.084;2022-08-19T06:35:51;23.10;99.90
61207;DHT22;47070;49.212;8.084;2022-08-19T06:39:51;23.10;99.90
61207;DHT22;47070;49.212;8.084;2022-08-19T06:43:53;23.10;99.90
61207;DHT22;47070;49.212;8.084;2022-08-19T06:47:54;23.10;99.90
61207;DHT22;47070;49.212;8.084;2022-08-19T06:51:56;23.30;99.90
61207;DHT22;47070;49.212;8.084;2022-08-19T06:55:57;23.20;99.90
61207;DHT22;47070;49.212;8.084;2022-08-19T07:00:04;23.20;99.90
61207;DHT22;47070;49.212;8.084;2022-08-19T07:04:06;23.30;99.90
61207;DHT22;47070;49.212;8.084;2022-08-19T07:08:09;23.30;99.90
61207;DHT22;47070;49.212;8.084;2022-08-19T07:12:11;23.30;99.90
61207;DHT22;47070;49.212;8.084;2022-08-19T07:16:15;23.40;99.90
61207;DHT22;47070;49.212;8.084;2022-08-19T07:20:16;23.50;99.90
61207;DHT22;47070;49.212;8.084;2022-08-19T07:24:17;23.50;99.90
61207;DHT22;47070;49.212;8.084;2022-08-19T07:28:18;23.60;99.90
61207;DHT22;47070;49.212;8.084;2022-08-19T07:32:19;23.50;99.90
61207;DHT22;47070;49.212;8.084;2022-08-19T07:36:22;23.70;99.90
61207;DHT22;47070;49.212;8.084;2022-08-19T07:40:23;23.80;99.90
61207;DHT22;47070;49.212;8.084;2022-08-19T07:44:24;23.80;99.90
61207;DHT22;47070;49.212;8.084;2022-08-19T07:48:26;23.70;99.90
61207;DHT22;47070;49.212;8.084;2022-08-19T07:52:27;23.70;99.90
61207;DHT22;47070;49.212;8.084;2022-08-19T07:56:28;23.80;99.90
61207;DHT22;47070;49.212;8.084;2022-08-19T08:00:28;23.80;99.90
61207;DHT22;47070;49.212;8.084;2022-08-19T08:04:29;23.90;99.90
61207;DHT22;47070;49.212;8.084;2022-08-19T08:08:48;24.00;99.90
61207;DHT22;47070;49.212;8.084;2022-08-19T08:13:07;24.00;99.90
61207;DHT22;47070;49.212;8.084;2022-08-19T08:17:09;24.00;99.90
61207;DHT22;47070;49.212;8.084;2022-08-19T08:21:09;24.10;99.90
61207;DHT22;47070;49.212;8.084;2022-08-19T08:25:18;24.30;99.90
61207;DHT22;47070;49.212;8.084;2022-08-19T08:29:20;24.30;99.90
61207;DHT22;47070;49.212;8.084;2022-08-19T08:33:23;24.40;99.90
61207;DHT22;47070;49.212;8.084;2022-08-19T08:37:23;24.40;99.90
61207;DHT22;47070;49.212;8.084;2022-08-19T08:41:54;24.60;99.90
61207;DHT22;47070;49.212;8.084;2022-08-19T08:46:05;24.70;99.90
61207;DHT22;47070;49.212;8.084;2022-08-19T08:50:09;24.80;99.90
61207;DHT22;47070;49.212;8.084;2022-08-19T08:54:19;24.60;99.90
61207;DHT22;47070;49.212;8.084;2022-08-19T08:58:31;24.50;99.90
61207;DHT22;47070;49.212;8.084;2022-08-19T09:02:34;24.40;99.90
61207;DHT22;47070;49.212;8.084;2022-08-19T09:06:51;24.30;99.90
61207;DHT22;47070;49.212;8.084;2022-08-19T09:10:56;24.50;99.90
61207;DHT22;47070;49.212;8.084;2022-08-19T09:15:05;24.60;99.90
61207;DHT22;47070;49.212;8.084;2022-08-19T09:19:08;24.70;99.90
61207;DHT22;47070;49.212;8.084;2022-08-19T09:23:10;24.70;99.90
61207;DHT22;47070;49.212;8.084;2022-08-19T09:27:11;24.90;99.90
61207;DHT22;47070;49.212;8.084;2022-08-19T09:31:13;25.00;99.60
61207;DHT22;47070;49.212;8.084;2022-08-19T09:35:14;25.20;98.80
61207;DHT22;47070;49.212;8.084;2022-08-19T09:39:15;25.30;98.10
61207;DHT22;47070;49.212;8.084;2022-08-19T09:43:15;25.20;98.30
61207;DHT22;47070;49.212;8.084;2022-08-19T09:47:16;25.00;98.40
61207;DHT22;47070;49.212;8.084;2022-08-19T09:51:22;25.10;99.10
61207;DHT22;47070;49.212;8.084;2022-08-19T09:55:23;25.10;99.00
61207;DHT22;47070;49.212;8.084;2022-08-19T09:59:23;25.40;98.70
61207;DHT22;47070;49.212;8.084;2022-08-19T10:03:25;25.50;98.20
61207;DHT22;47070;49.212;8.084;2022-08-19T10:07:25;25.50;98.10
61207;DHT22;47070;49.212;8.084;2022-08-19T10:11:26;25.60;98.50
61207;DHT22;47070;49.212;8.084;2022-08-19T10:15:28;25.80;98.20
61207;DHT22;47070;49.212;8.084;2022-08-19T10:19:28;26.00;97.80
61207;DHT22;47070;49.212;8.084;2022-08-19T10:23:32;26.00;96.30
61207;DHT22;47070;49.212;8.084;2022-08-19T10:27:33;26.10;97.10
61207;DHT22;47070;49.212;8.084;2022-08-19T10:31:34;25.80;95.80
61207;DHT22;47070;49.212;8.084;2022-08-19T10:35:34;25.90;96.30
61207;DHT22;47070;49.212;8.084;2022-08-19T10:39:37;26.10;96.30
61207;DHT22;47070;49.212;8.084;2022-08-19T10:43:37;26.10;96.30
61207;DHT22;47070;49.212;8.084;2022-08-19T10:47:38;26.30;95.10
61207;DHT22;47070;49.212;8.084;2022-08-19T10:51:39;26.40;95.40
61207;DHT22;47070;49.212;8.084;2022-08-19T10:55:59;26.30;94.90
61207;DHT22;47070;49.212;8.084;2022-08-19T11:00:22;26.40;95.90
61207;DHT22;47070;49.212;8.084;2022-08-19T11:04:23;26.20;95.20
61207;DHT22;47070;49.212;8.084;2022-08-19T11:08:23;26.30;95.90
61207;DHT22;47070;49.212;8.084;2022-08-19T11:12:24;26.40;95.50
61207;DHT22;47070;49.212;8.084;2022-08-19T11:16:26;26.60;94.30
61207;DHT22;47070;49.212;8.084;2022-08-19T11:20:29;26.70;92.20
61207;DHT22;47070;49.212;8.084;2022-08-19T11:24:31;27.00;93.00
61207;DHT22;47070;49.212;8.084;2022-08-19T11:28:31;27.10;91.90
61207;DHT22;47070;49.212;8.084;2022-08-19T11:32:32;26.80;93.00
61207;DHT22;47070;49.212;8.084;2022-08-19T11:36:37;26.90;92.50
61207;DHT22;47070;49.212;8.084;2022-08-19T11:40:38;27.00;92.90
61207;DHT22;47070;49.212;8.084;2022-08-19T11:44:40;27.20;91.50
61207;DHT22;47070;49.212;8.084;2022-08-19T11:48:41;27.30;90.40
61207;DHT22;47070;49.212;8.084;2022-08-19T11:52:41;27.20;90.40
61207;DHT22;47070;49.212;8.084;2022-08-19T11:56:44;27.50;91.70
61207;DHT22;47070;49.212;8.084;2022-08-19T12:00:45;27.50;90.00
61207;DHT22;47070;49.212;8.084;2022-08-19T12:04:46;27.70;88.70
61207;DHT22;47070;49.212;8.084;2022-08-19T12:08:47;28.30;87.50
61207;DHT22;47070;49.212;8.084;2022-08-19T12:12:48;28.80;82.40
61207;DHT22;47070;49.212;8.084;2022-08-19T12:16:48;29.00;81.00
61207;DHT22;47070;49.212;8.084;2022-08-19T12:20:50;30.00;81.90
61207;DHT22;47070;49.212;8.084;2022-08-19T12:24:51;30.40;81.70
61207;DHT22;47070;49.212;8.084;2022-08-19T12:28:54;30.20;77.80
61207;DHT22;47070;49.212;8.084;2022-08-19T12:32:54;30.40;79.40
61207;DHT22;47070;49.212;8.084;2022-08-19T12:36:56;29.60;82.30
61207;DHT22;47070;49.212;8.084;2022-08-19T12:40:58;29.00;78.50
61207;DHT22;47070;49.212;8.084;2022-08-19T12:44:58;28.90;83.50
61207;DHT22;47070;49.212;8.084;2022-08-19T12:48:59;28.60;81.00
61207;DHT22;47070;49.212;8.084;2022-08-19T12:52:59;28.40;80.00
61207;DHT22;47070;49.212;8.084;2022-08-19T12:57:00;28.40;82.20
61207;DHT22;47070;49.212;8.084;2022-08-19T13:01:12;29.20;81.90
61207;DHT22;47070;49.212;8.084;2022-08-19T13:05:15;29.40;79.60
61207;DHT22;47070;49.212;8.084;2022-08-19T13:09:16;29.00;78.80
61207;DHT22;47070;49.212;8.084;2022-08-19T13:13:16;28.70;80.00
61207;DHT22;47070;49.212;8.084;2022-08-19T13:17:17;28.40;86.30
61207;DHT22;47070;49.212;8.084;2022-08-19T13:21:19;28.70;84.50
61207;DHT22;47070;49.212;8.084;2022-08-19T13:25:21;30.70;78.40
61207;DHT22;47070;49.212;8.084;2022-08-19T13:29:21;31.70;78.20
61207;DHT22;47070;49.212;8.084;2022-08-19T13:33:40;32.30;75.00
61207;DHT22;47070;49.212;8.084;2022-08-19T13:37:41;33.40;72.80
61207;DHT22;47070;49.212;8.084;2022-08-19T13:41:45;34.20;73.60
61207;DHT22;47070;49.212;8.084;2022-08-19T13:45:52;34.80;69.80
61207;DHT22;47070;49.212;8.084;2022-08-19T13:49:55;33.80;67.10
61207;DHT22;47070;49.212;8.084;2022-08-19T13:53:55;33.00;70.90
61207;DHT22;47070;49.212;8.084;2022-08-19T13:57:58;31.90;69.00
61207;DHT22;47070;49.212;8.084;2022-08-19T14:02:00;30.80;70.00
61207;DHT22;47070;49.212;8.084;2022-08-19T14:06:01;30.30;75.30
61207;DHT22;47070;49.212;8.084;2022-08-19T14:10:03;29.90;76.30
61207;DHT22;47070;49.212;8.084;2022-08-19T14:14:04;29.50;76.80
61207;DHT22;47070;49.212;8.084;2022-08-19T14:18:04;29.20;79.40
61207;DHT22;47070;49.212;8.084;2022-08-19T14:22:05;28.80;77.80
61207;DHT22;47070;49.212;8.084;2022-08-19T14:26:08;28.60;78.80
61207;DHT22;47070;49.212;8.084;2022-08-19T14:30:11;28.30;77.40
61207;DHT22;47070;49.212;8.084;2022-08-19T14:34:12;28.20;77.20
61207;DHT22;47070;49.212;8.084;2022-08-19T14:38:17;28.10;80.40
61207;DHT22;47070;49.212;8.084;2022-08-19T14:42:18;27.90;80.70
61207;DHT22;47070;49.212;8.084;2022-08-19T14:46:22;27.90;82.40
61207;DHT22;47070;49.212;8.084;2022-08-19T14:50:22;28.00;78.80
61207;DHT22;47070;49.212;8.084;2022-08-19T14:54:23;28.20;78.60
61207;DHT22;47070;49.212;8.084;2022-08-19T14:58:23;28.20;78.90
61207;DHT22;47070;49.212;8.084;2022-08-19T15:02:24;28.40;80.10
61207;DHT22;47070;49.212;8.084;2022-08-19T15:06:25;28.40;80.30
61207;DHT22;47070;49.212;8.084;2022-08-19T15:10:26;28.60;76.30
61207;DHT22;47070;49.212;8.084;2022-08-19T15:14:27;28.70;77.40
61207;DHT22;47070;49.212;8.084;2022-08-19T15:18:34;28.60;80.90
61207;DHT22;47070;49.212;8.084;2022-08-19T15:22:35;28.50;80.30
61207;DHT22;47070;49.212;8.084;2022-08-19T15:26:35;28.30;80.90
61207;DHT22;47070;49.212;8.084;2022-08-19T15:30:37;28.40;80.80
61207;DHT22;47070;49.212;8.084;2022-08-19T15:34:38;28.50;74.80
61207;DHT22;47070;49.212;8.084;2022-08-19T15:38:39;28.50;75.60
61207;DHT22;47070;49.212;8.084;2022-08-19T15:42:41;28.50;79.10
61207;DHT22;47070;49.212;8.084;2022-08-19T15:46:44;28.60;76.40
61207;DHT22;47070;49.212;8.084;2022-08-19T15:50:45;28.50;76.10
61207;DHT22;47070;49.212;8.084;2022-08-19T15:54:45;28.40;81.50
61207;DHT22;47070;49.212;8.084;2022-08-19T15:58:46;28.40;75.70
61207;DHT22;47070;49.212;8.084;2022-08-19T16:03:05;28.40;76.30
61207;DHT22;47070;49.212;8.084;2022-08-19T16:07:24;28.20;77.10
61207;DHT22;47070;49.212;8.084;2022-08-19T16:11:27;28.20;80.80
61207;DHT22;47070;49.212;8.084;2022-08-19T16:15:29;27.80;82.50
61207;DHT22;47070;49.212;8.084;2022-08-19T16:19:30;27.80;83.70
61207;DHT22;47070;49.212;8.084;2022-08-19T16:23:33;27.60;82.30
61207;DHT22;47070;49.212;8.084;2022-08-19T16:27:35;27.60;83.30
61207;DHT22;47070;49.212;8.084;2022-08-19T16:31:36;27.60;84.30
61207;DHT22;47070;49.212;8.084;2022-08-19T16:35:36;27.70;84.40
61207;DHT22;47070;49.212;8.084;2022-08-19T16:39:38;27.60;82.80
61207;DHT22;47070;49.212;8.084;2022-08-19T16:43:39;27.50;84.80
61207;DHT22;47070;49.212;8.084;2022-08-19T16:47:39;27.30;84.00
61207;DHT22;47070;49.212;8.084;2022-08-19T16:51:40;27.30;85.80
61207;DHT22;47070;49.212;8.084;2022-08-19T16:55:42;27.30;86.20
61207;DHT22;47070;49.212;8.084;2022-08-19T16:59:42;27.30;84.20
61207;DHT22;47070;49.212;8.084;2022-08-19T17:03:43;27.20;86.40
61207;DHT22;47070;49.212;8.084;2022-08-19T17:07:44;27.20;82.30
61207;DHT22;47070;49.212;8.084;2022-08-19T17:11:45;27.20;86.10
61207;DHT22;47070;49.212;8.084;2022-08-19T17:15:45;27.10;85.80
61207;DHT22;47070;49.212;8.084;2022-08-19T17:19:46;27.00;87.20
61207;DHT22;47070;49.212;8.084;2022-08-19T17:23:47;27.10;82.70
61207;DHT22;47070;49.212;8.084;2022-08-19T17:27:48;27.10;85.80
61207;DHT22;47070;49.212;8.084;2022-08-19T17:31:50;27.10;85.10
61207;DHT22;47070;49.212;8.084;2022-08-19T17:35:51;27.20;83.80
61207;DHT22;47070;49.212;8.084;2022-08-19T17:39:51;26.90;84.40
61207;DHT22;47070;49.212;8.084;2022-08-19T17:43:52;26.90;84.00
61207;DHT22;47070;49.212;8.084;2022-08-19T17:47:53;26.90;84.30
61207;DHT22;47070;49.212;8.084;2022-08-19T17:51:54;26.90;82.80
61207;DHT22;47070;49.212;8.084;2022-08-19T17:55:55;26.90;86.30
61207;DHT22;47070;49.212;8.084;2022-08-19T17:59:56;26.90;82.90
61207;DHT22;47070;49.212;8.084;2022-08-19T18:03:58;26.80;85.40
61207;DHT22;47070;49.212;8.084;2022-08-19T18:07:59;26.70;82.00
61207;DHT22;47070;49.212;8.084;2022-08-19T18:12:00;26.70;80.10
61207;DHT22;47070;49.212;8.084;2022-08-19T18:16:02;26.60;81.80
61207;DHT22;47070;49.212;8.084;2022-08-19T18:20:05;26.70;84.00
61207;DHT22;47070;49.212;8.084;2022-08-19T18:24:07;26.60;79.60
61207;DHT22;47070;49.212;8.084;2022-08-19T18:28:07;26.40;80.80
61207;DHT22;47070;49.212;8.084;2022-08-19T18:32:08;26.30;86.00
61207;DHT22;47070;49.212;8.084;2022-08-19T18:36:11;26.30;82.50
61207;DHT22;47070;49.212;8.084;2022-08-19T18:40:16;26.10;84.70
61207;DHT22;47070;49.212;8.084;2022-08-19T18:44:36;26.00;86.80
61207;DHT22;47070;49.212;8.084;2022-08-19T18:48:55;26.00;86.20
61207;DHT22;47070;49.212;8.084;2022-08-19T18:53:05;25.90;86.20
61207;DHT22;47070;49.212;8.084;2022-08-19T18:57:05;25.70;84.90
61207;DHT22;47070;49.212;8.084;2022-08-19T19:01:13;25.60;86.40
61207;DHT22;47070;49.212;8.084;2022-08-19T19:05:14;25.50;87.80
61207;DHT22;47070;49.212;8.084;2022-08-19T19:09:17;25.50;87.30
61207;DHT22;47070;49.212;8.084;2022-08-19T19:13:18;25.40;90.00
61207;DHT22;47070;49.212;8.084;2022-08-19T19:17:20;25.50;90.00
61207;DHT22;47070;49.212;8.084;2022-08-19T19:21:27;25.30;87.40
61207;DHT22;47070;49.212;8.084;2022-08-19T19:25:28;25.20;89.50
61207;DHT22;47070;49.212;8.084;2022-08-19T19:29:28;25.30;88.80
61207;DHT22;47070;49.212;8.084;2022-08-19T19:33:29;25.00;88.90
61207;DHT22;47070;49.212;8.084;2022-08-19T19:37:29;24.90;90.00
61207;DHT22;47070;49.212;8.084;2022-08-19T19:41:30;24.60;90.60
61207;DHT22;47070;49.212;8.084;2022-08-19T19:45:32;24.50;91.30
61207;DHT22;47070;49.212;8.084;2022-08-19T19:49:33;24.50;91.00
61207;DHT22;47070;49.212;8.084;2022-08-19T19:53:33;24.50;91.40
61207;DHT22;47070;49.212;8.084;2022-08-19T19:57:34;24.60;91.80
61207;DHT22;47070;49.212;8.084;2022-08-19T20:01:34;24.70;92.30
61207;DHT22;47070;49.212;8.084;2022-08-19T20:05:35;24.80;92.60
61207;DHT22;47070;49.212;8.084;2022-08-19T20:09:35;24.80;92.20
61207;DHT22;47070;49.212;8.084;2022-08-19T20:13:36;24.70;92.00
61207;DHT22;47070;49.212;8.084;2022-08-19T20:17:40;24.80;92.50
61207;DHT22;47070;49.212;8.084;2022-08-19T20:21:42;24.90;92.80
61207;DHT22;47070;49.212;8.084;2022-08-19T20:25:44;24.90;92.70
61207;DHT22;47070;49.212;8.084;2022-08-19T20:29:45;24.90;92.80
61207;DHT22;47070;49.212;8.084;2022-08-19T20:33:46;24.90;93.00
61207;DHT22;47070;49.212;8.084;2022-08-19T20:37:47;24.90;93.10
61207;DHT22;47070;49.212;8.084;2022-08-19T20:41:48;24.90;93.30
61207;DHT22;47070;49.212;8.084;2022-08-19T20:45:48;24.90;93.30
61207;DHT22;47070;49.212;8.084;2022-08-19T20:49:49;24.80;93.40
61207;DHT22;47070;49.212;8.084;2022-08-19T20:53:50;24.80;93.50
61207;DHT22;47070;49.212;8.084;2022-08-19T20:57:51;24.80;93.50
61207;DHT22;47070;49.212;8.084;2022-08-19T21:01:52;24.80;93.70
61207;DHT22;47070;49.212;8.084;2022-08-19T21:05:53;24.70;93.80
61207;DHT22;47070;49.212;8.084;2022-08-19T21:09:54;24.70;94.00
61207;DHT22;47070;49.212;8.084;2022-08-19T21:13:54;24.60;94.10
61207;DHT22;47070;49.212;8.084;2022-08-19T21:17:56;24.60;94.20
61207;DHT22;47070;49.212;8.084;2022-08-19T21:21:57;24.60;94.50
61207;DHT22;47070;49.212;8.084;2022-08-19T21:25:59;24.60;94.50
61207;DHT22;47070;49.212;8.084;2022-08-19T21:30:00;24.40;94.90
61207;DHT22;47070;49.212;8.084;2022-08-19T21:34:01;24.40;94.80
61207;DHT22;47070;49.212;8.084;2022-08-19T21:38:01;24.40;95.20
61207;DHT22;47070;49.212;8.084;2022-08-19T21:42:02;24.40;95.20
61207;DHT22;47070;49.212;8.084;2022-08-19T21:46:03;24.20;95.50
61207;DHT22;47070;49.212;8.084;2022-08-19T21:50:05;24.20;95.60
61207;DHT22;47070;49.212;8.084;2022-08-19T21:54:05;24.20;95.70
61207;DHT22;47070;49.212;8.084;2022-08-19T21:58:06;24.20;95.80
61207;DHT22;47070;49.212;8.084;2022-08-19T22:02:07;24.30;95.80
61207;DHT22;47070;49.212;8.084;2022-08-19T22:06:09;23.90;96.30
61207;DHT22;47070;49.212;8.084;2022-08-19T22:10:10;23.90;96.20
61207;DHT22;47070;49.212;8.084;2022-08-19T22:14:10;23.70;96.60
61207;DHT22;47070;49.212;8.084;2022-08-19T22:18:11;23.60;96.80
61207;DHT22;47070;49.212;8.084;2022-08-19T22:22:22;23.60;97.00
61207;DHT22;47070;49.212;8.084;2022-08-19T22:26:23;23.40;97.40
61207;DHT22;47070;49.212;8.084;2022-08-19T22:30:24;23.10;97.90
61207;DHT22;47070;49.212;8.084;2022-08-19T22:34:25;23.00;97.90
61207;DHT22;47070;49.212;8.084;2022-08-19T22:38:26;22.80;98.40
61207;DHT22;47070;49.212;8.084;2022-08-19T22:42:26;22.80;98.80
61207;DHT22;47070;49.212;8.084;2022-08-19T22:46:27;22.60;99.00
61207;DHT22;47070;49.212;8.084;2022-08-19T22:50:27;22.50;99.40
61207;DHT22;47070;49.212;8.084;2022-08-19T22:54:28;22.30;99.60
61207;DHT22;47070;49.212;8.084;2022-08-19T22:58:28;22.40;99.80
61207;DHT22;47070;49.212;8.084;2022-08-19T23:02:31;22.30;99.90
61207;DHT22;47070;49.212;8.084;2022-08-19T23:06:33;22.30;99.90
61207;DHT22;47070;49.212;8.084;2022-08-19T23:10:34;22.40;99.90
61207;DHT22;47070;49.212;8.084;2022-08-19T23:14:34;22.30;99.90
61207;DHT22;47070;49.212;8.084;2022-08-19T23:18:36;22.30;99.90
61207;DHT22;47070;49.212;8.084;2022-08-19T23:22:38;22.20;99.90
61207;DHT22;47070;49.212;8.084;2022-08-19T23:26:40;22.20;99.90
61207;DHT22;47070;49.212;8.084;2022-08-19T23:31:04;22.00;99.90
61207;DHT22;47070;49.212;8.084;2022-08-19T23:35:05;22.00;99.90
61207;DHT22;47070;49.212;8.084;2022-08-19T23:39:06;22.00;99.90
61207;DHT22;47070;49.212;8.084;2022-08-19T23:43:07;22.00;99.90
61207;DHT22;47070;49.212;8.084;2022-08-19T23:47:08;22.00;99.90
61207;DHT22;47070;49.212;8.084;2022-08-19T23:51:10;22.00;99.90
61207;DHT22;47070;49.212;8.084;2022-08-19T23:55:13;22.00;99.90
61207;DHT22;47070;49.212;8.084;2022-08-19T23:59:14;21.90;99.90
